Thunderstorms From: 26-05-2018 05:06 Until: 27-05-2018 05:00 warning for: Thunderstorms Level: Yellow info button

Although rather usual in this region, locally or potentially dangerous phenomena are expected. (such as local winds, summer thunderstorms, rising streams or high waves) Be aware and pay attention to the latest weather updates, especially if you carry out activities exposed to weather or close to a stream or shoreline. 


Meteo18 Weather Cam more information Meteo18 Weather Cam


warning for Thunderstorms more information blitzortung!


Rain radar more information rain snow radar


Visit our other weather sites:

Template documentation
and downloads

And another site



Weather Underground History page Text

Daily Summary for August 1, 2017 Units:  Metric    English   Both
« Previous Day
Next Day »
Daily Weekly Monthly Yearly Custom
  High: Low: Average:
Temperature: -17.8 °C -8.9 °C -6.8 °C
Dew Point: -17.8 °C -9.6 °C -8.4 °C
Humidity: Humidity % 62 % 84 %
Wind Speed: 0 km/h 0 km/h 6.4 km/h
Wind Gust: 0 km/h - -
Wind:- - SSW
Pressure: 0 hPa 34246 hPa -
Precipitation: 594.36 mm    
Historical Graphs
 
 
Tabular Data for August 1, 2017
Time Temperature Dew Point Pressure Wind Wind Speed Wind Gust Humidity Rainfall Rate (Hourly)
-17.8 °C -17.8 °C 0 hPa Calm     Humidity % 0 mm
00:02 -8.7 °C -9.6 °C 34337.4 hPa NNW 7.7 km/h 36.2 km/h 91 % 218.44 mm
00:12 -8.5 °C -9.4 °C 34303.6 hPa North 7.7 km/h 31.1 km/h 90 % 167.64 mm
00:17 -8.5 °C -9.3 °C 34347.6 hPa NW 2.6 km/h 31.1 km/h 91 % 116.84 mm
00:22 -8.6 °C -9.4 °C 34347.6 hPa North 5.1 km/h 31.1 km/h 90 % 116.84 mm
00:32 -8.5 °C -9.3 °C 34361.1 hPa ENE 7.7 km/h 23.3 km/h 91 % 121.92 mm
00:37 -8.4 °C -9.3 °C 34371.3 hPa Calm   15.6 km/h 91 % 116.84 mm
00:47 -8.4 °C -9.3 °C 34347.6 hPa North 18.2 km/h 20.8 km/h 91 % 63.5 mm
00:52 -8.5 °C -9.2 °C 34347.6 hPa NNW 7.7 km/h 20.8 km/h 92 % 63.5 mm
01:02 -8.5 °C -9.2 °C 34384.8 hPa Calm   28.5 km/h 92 % 58.42 mm
01:12 -8.6 °C -9.2 °C 34384.8 hPa NW 7.7 km/h 20.8 km/h 93 % 63.5 mm
01:17 -8.6 °C -9.2 °C 34371.3 hPa NNW 15.6 km/h 15.6 km/h 93 % 58.42 mm
01:22 -8.6 °C -9.2 °C 34337.4 hPa NNW 15.6 km/h 15.6 km/h 93 % 58.42 mm
01:32 -8.6 °C -9.2 °C 34313.7 hPa NNE 10.3 km/h 23.3 km/h 93 % 58.42 mm
01:42 -8.6 °C -9.2 °C 34347.6 hPa NW 10.3 km/h 41.4 km/h 93 % 71.12 mm
01:47 -8.6 °C -9.2 °C 34361.1 hPa NW 5.1 km/h 31.1 km/h 93 % 38.1 mm
01:52 -8.6 °C -9.3 °C 34371.3 hPa Calm   31.1 km/h 92 % 38.1 mm
01:57 -8.6 °C -9.3 °C 34361.1 hPa NE 7.7 km/h 23.3 km/h 92 % 25.4 mm
02:02 -8.6 °C -9.3 °C 34347.6 hPa North 2.6 km/h 23.3 km/h 92 % 25.4 mm
02:07 -8.6 °C -9.2 °C 34347.6 hPa NNW 7.7 km/h 10.3 km/h 93 % 20.32 mm
02:12 -8.6 °C -9.2 °C 34347.6 hPa NW 5.1 km/h 10.3 km/h 93 % 20.32 mm
02:17 -8.6 °C -9.2 °C 34347.6 hPa NNW 7.7 km/h 15.6 km/h 93 % 20.32 mm
02:22 -8.6 °C -9.2 °C 34347.6 hPa Calm   15.6 km/h 93 % 20.32 mm
02:32 -8.5 °C -9.1 °C 34347.6 hPa NE 5.1 km/h 15.6 km/h 93 % 7.62 mm
02:42 -8.6 °C -9.2 °C 34327.3 hPa ENE 7.7 km/h 15.6 km/h 93 % 0 mm
02:52 -8.6 °C -9.2 °C 34337.4 hPa NNW 5.1 km/h 10.3 km/h 93 % 12.7 mm
02:57 -8.6 °C -9.2 °C 34347.6 hPa Calm   15.6 km/h 93 % 12.7 mm
03:02 -8.6 °C -9.1 °C 34361.1 hPa Calm   15.6 km/h 94 % 12.7 mm
03:07 -8.6 °C -9.1 °C 34347.6 hPa Calm   10.3 km/h 94 % 12.7 mm
03:12 -8.6 °C -9.1 °C 34347.6 hPa Calm   10.3 km/h 94 % 12.7 mm
03:17 -8.6 °C -9.1 °C 34337.4 hPa Calm   10.3 km/h 94 % 12.7 mm
03:22 -8.6 °C -9.1 °C 34337.4 hPa NNE 2.6 km/h 7.7 km/h 94 % 12.7 mm
03:32 -8.6 °C -9.1 °C 34327.3 hPa NNW 10.3 km/h 12.9 km/h 94 % 12.7 mm
03:37 -8.6 °C -9.1 °C 34303.6 hPa WSW 5.1 km/h 25.9 km/h 94 % 12.7 mm
03:42 -8.6 °C -9.1 °C 34347.6 hPa Calm   33.6 km/h 94 % 12.7 mm
03:47 -8.6 °C -9.1 °C 34313.7 hPa NNW 12.9 km/h 33.6 km/h 94 % 12.7 mm
03:52 -8.5 °C -9.1 °C 34327.3 hPa Calm   18.2 km/h 94 % 25.4 mm
03:57 -8.5 °C -9.1 °C 34361.1 hPa WNW 5.1 km/h 18.2 km/h 94 % 25.4 mm
04:02 -8.5 °C -9.1 °C 34347.6 hPa Calm   15.6 km/h 94 % 33.02 mm
04:12 -8.6 °C -9.1 °C 34361.1 hPa Calm   7.7 km/h 94 % 33.02 mm
04:17 -8.6 °C -9.1 °C 34347.6 hPa Calm   7.7 km/h 94 % 33.02 mm
04:22 -8.6 °C -9.1 °C 34347.6 hPa Calm   7.7 km/h 94 % 25.4 mm
04:27 -8.6 °C -9 °C 34337.4 hPa NNW 2.6 km/h 7.7 km/h 95 % 25.4 mm
04:32 -8.6 °C -9 °C 34337.4 hPa Calm   7.7 km/h 95 % 33.02 mm
04:42 -8.6 °C -9.1 °C 34337.4 hPa Calm   15.6 km/h 95 % 25.4 mm
04:52 -8.6 °C -9 °C 34327.3 hPa NNW 2.6 km/h 15.6 km/h 95 % 25.4 mm
04:57 -8.6 °C -9 °C 34313.7 hPa North 2.6 km/h 10.3 km/h 95 % 12.7 mm
05:02 -8.6 °C -9 °C 34313.7 hPa North 10.3 km/h 10.3 km/h 95 % 12.7 mm
05:12 -8.6 °C -9 °C 34327.3 hPa North 7.7 km/h 15.6 km/h 95 % 12.7 mm
05:17 -8.6 °C -9 °C 34313.7 hPa NNW 2.6 km/h 15.6 km/h 95 % 12.7 mm
05:22 -8.6 °C -8.9 °C 34371.3 hPa SW 12.9 km/h 15.6 km/h 96 % 12.7 mm
05:27 -8.6 °C -9 °C 34428.8 hPa West 36.2 km/h 36.2 km/h 95 % 12.7 mm
05:37 -8.5 °C -8.8 °C 34418.7 hPa South 2.6 km/h 80.3 km/h 96 % 289.56 mm
05:42 -8.5 °C -8.8 °C 34428.8 hPa SW 12.9 km/h 80.3 km/h 96 % 289.56 mm
05:47 -8.7 °C -9.1 °C 34428.8 hPa SSW 10.3 km/h 25.9 km/h 95 % 330.2 mm
05:52 -8.7 °C -9 °C 34452.6 hPa SSW 18.2 km/h 25.9 km/h 96 % 330.2 mm
06:02 -8.8 °C -9.1 °C 34462.7 hPa SE 7.7 km/h 25.9 km/h 96 % 347.98 mm
06:07 -8.8 °C -9.1 °C 34418.7 hPa ENE 2.6 km/h 25.9 km/h 96 % 368.3 mm
06:12 -8.8 °C -9.1 °C 34405.1 hPa NE 5.1 km/h 25.9 km/h 96 % 368.3 mm
06:17 -8.8 °C -9.1 °C 34361.1 hPa NE 28.5 km/h 28.5 km/h 96 % 373.38 mm
06:22 -8.8 °C -9.1 °C 34327.3 hPa NE 28.5 km/h 28.5 km/h 96 % 386.08 mm
06:32 -8.8 °C -9.2 °C 34256.2 hPa North 23.3 km/h 49.2 km/h 96 % 322.58 mm
06:37 -8.8 °C -9.2 °C 34269.7 hPa NNE 23.3 km/h 49.2 km/h 96 % 322.58 mm
06:42 -8.8 °C -9.2 °C 34269.7 hPa NE 5.1 km/h 59.5 km/h 96 % 104.14 mm
06:47 -8.8 °C -9.2 °C 34269.7 hPa NNE 15.6 km/h 59.5 km/h 96 % 104.14 mm
06:52 -8.9 °C -9.2 °C 34269.7 hPa WSW 2.6 km/h 38.8 km/h 96 % 63.5 mm
06:57 -8.9 °C -9.2 °C 34293.4 hPa North 12.9 km/h 23.3 km/h 96 % 58.42 mm
07:02 -8.9 °C -9.2 °C 34246 hPa North 7.7 km/h 23.3 km/h 96 % 58.42 mm
07:07 -8.9 °C -9.2 °C 34303.6 hPa South 10.3 km/h 28.5 km/h 96 % 38.1 mm
07:12 -8.8 °C -9.2 °C 34293.4 hPa SW 5.1 km/h 28.5 km/h 96 % 38.1 mm
07:17 -8.9 °C -9.2 °C 34303.6 hPa SSW 7.7 km/h 25.9 km/h 96 % 25.4 mm
07:22 -8.9 °C -9.3 °C 34327.3 hPa South 10.3 km/h 25.9 km/h 96 % 25.4 mm
07:27 -8.9 °C -9.3 °C 34337.4 hPa SSW 18.2 km/h 20.8 km/h 96 % 12.7 mm
07:37 -8.8 °C -9.1 °C 34384.8 hPa West 18.2 km/h 31.1 km/h 97 % 7.62 mm
07:42 -8.8 °C -9.2 °C 34361.1 hPa WSW 12.9 km/h 31.1 km/h 96 % 7.62 mm
07:47 -8.8 °C -9.1 °C 34361.1 hPa West 5.1 km/h 36.2 km/h 96 % 7.62 mm
07:52 -8.8 °C -9.1 °C 34347.6 hPa WNW 10.3 km/h 36.2 km/h 96 % 7.62 mm
07:57 -8.7 °C -9.1 °C 34347.6 hPa West 7.7 km/h 20.8 km/h 96 % 7.62 mm
08:02 -8.7 °C -9 °C 34361.1 hPa SW 10.3 km/h 20.8 km/h 96 % 7.62 mm
08:07 -8.6 °C -8.9 °C 34371.3 hPa SW 23.3 km/h 23.3 km/h 96 % 0 mm
08:12 -8.5 °C -8.8 °C 34371.3 hPa West 15.6 km/h 20.8 km/h 96 % 0 mm
08:17 -8.5 °C -8.8 °C 34384.8 hPa WSW 23.3 km/h 33.6 km/h 96 % 0 mm
08:22 -8.5 °C -8.9 °C 34395 hPa SW 23.3 km/h 33.6 km/h 95 % 0 mm
08:27 -8.4 °C -8.9 °C 34395 hPa WSW 18.2 km/h 38.8 km/h 95 % 0 mm
08:32 -8.4 °C -8.9 °C 34405.1 hPa West 7.7 km/h 38.8 km/h 95 % 0 mm
08:37 -8.4 °C -8.9 °C 34395 hPa West 5.1 km/h 31.1 km/h 95 % 0 mm
08:42 -8.4 °C -8.9 °C 34418.7 hPa West 28.5 km/h 31.1 km/h 95 % 0 mm
08:47 -8.4 °C -8.8 °C 34418.7 hPa WSW 10.3 km/h 31.1 km/h 95 % 0 mm
08:52 -8.4 °C -8.8 °C 34428.8 hPa WSW 33.6 km/h 33.6 km/h 95 % 0 mm
09:02 -8.4 °C -8.8 °C 34442.4 hPa West 7.7 km/h 36.2 km/h 95 % 0 mm
09:07 -8.4 °C -8.8 °C 34418.7 hPa Calm   36.2 km/h 95 % 7.62 mm
09:12 -8.4 °C -8.8 °C 34418.7 hPa Calm   36.2 km/h 95 % 7.62 mm
09:17 -8.4 °C -8.8 °C 34428.8 hPa ESE 2.6 km/h 31.1 km/h 95 % 7.62 mm
09:22 -8.4 °C -8.8 °C 34428.8 hPa Calm   18.2 km/h 95 % 20.32 mm
09:32 -8.4 °C -8.9 °C 34384.8 hPa NE 12.9 km/h 15.6 km/h 95 % 33.02 mm
09:37 -8.4 °C -8.9 °C 34361.1 hPa NE 20.8 km/h 25.9 km/h 95 % 38.1 mm
09:42 -8.4 °C -8.7 °C 34405.1 hPa East 5.1 km/h 25.9 km/h 96 % 38.1 mm
09:47 -8.3 °C -8.7 °C 34428.8 hPa Calm   31.1 km/h 96 % 38.1 mm
09:52 -8.3 °C -8.6 °C 34442.4 hPa SW 5.1 km/h 31.1 km/h 96 % 38.1 mm
09:57 -8.3 °C -8.7 °C 34428.8 hPa WNW 2.6 km/h 18.2 km/h 96 % 38.1 mm
10:02 -8.3 °C -8.7 °C 34395 hPa ENE 5.1 km/h 18.2 km/h 96 % 38.1 mm
10:07 -8.4 °C -8.7 °C 34371.3 hPa NE 23.3 km/h 23.3 km/h 96 % 38.1 mm
10:12 -8.4 °C -8.8 °C 34337.4 hPa ESE 10.3 km/h 12.9 km/h 96 % 38.1 mm
10:17 -8.4 °C -8.7 °C 34395 hPa SE 2.6 km/h 33.6 km/h 96 % 25.4 mm
10:22 -8.3 °C -8.6 °C 34395 hPa Calm   33.6 km/h 96 % 25.4 mm
10:27 -8.2 °C -8.6 °C 34395 hPa Calm   12.9 km/h 96 % 12.7 mm
10:32 -8.1 °C -8.4 °C 34418.7 hPa SW 5.1 km/h 12.9 km/h 96 % 12.7 mm
10:37 -8.2 °C -8.6 °C 34418.7 hPa SW 7.7 km/h 7.7 km/h 95 % 12.7 mm
10:42 -8.1 °C -8.4 °C 34405.1 hPa West 5.1 km/h 5.1 km/h 96 % 12.7 mm
10:47 -8.1 °C -8.6 °C 34405.1 hPa WNW 7.7 km/h 10.3 km/h 95 % 12.7 mm
10:57 -7.9 °C -8.3 °C 34418.7 hPa Calm   15.6 km/h 96 % 7.62 mm
11:02 -8 °C -8.6 °C 34395 hPa Calm   15.6 km/h 94 % 7.62 mm
11:07 -7.9 °C -8.4 °C 34395 hPa North 5.1 km/h 7.7 km/h 95 % 0 mm
11:12 -7.8 °C -8.4 °C 34405.1 hPa WNW 12.9 km/h 12.9 km/h 94 % 0 mm
11:17 -7.8 °C -8.4 °C 34442.4 hPa SW 12.9 km/h 12.9 km/h 94 % 0 mm
11:22 -7.8 °C -8.3 °C 34428.8 hPa SW 7.7 km/h 12.9 km/h 94 % 0 mm
11:27 -7.7 °C -8.2 °C 34428.8 hPa West 5.1 km/h 15.6 km/h 94 % 0 mm
11:32 -7.5 °C -8.2 °C 34428.8 hPa WSW 5.1 km/h 15.6 km/h 93 % 0 mm
11:37 -7.4 °C -8.2 °C 34428.8 hPa Calm   10.3 km/h 91 % 0 mm
11:42 -7.3 °C -8.3 °C 34428.8 hPa SW 7.7 km/h 10.3 km/h 89 % 0 mm
11:47 -7.2 °C -8.1 °C 34418.7 hPa West 7.7 km/h 12.9 km/h 90 % 0 mm
11:52 -7.2 °C -8.3 °C 34418.7 hPa West 5.1 km/h 12.9 km/h 88 % 0 mm
11:57 -7.1 °C -8.2 °C 34418.7 hPa WSW 5.1 km/h 10.3 km/h 88 % 0 mm
12:02 -6.8 °C -7.9 °C 34418.7 hPa South 2.6 km/h 10.3 km/h 89 % 0 mm
12:07 -6.7 °C -8.1 °C 34418.7 hPa West 5.1 km/h 10.3 km/h 86 % 0 mm
12:17 -6.6 °C -8 °C 34418.7 hPa South 7.7 km/h 12.9 km/h 85 % 0 mm
12:22 -6.6 °C -8.1 °C 34418.7 hPa Calm   12.9 km/h 84 % 0 mm
12:27 -6.6 °C -8.2 °C 34428.8 hPa WSW 12.9 km/h 18.2 km/h 83 % 0 mm
12:32 -6.5 °C -8.2 °C 34428.8 hPa West 7.7 km/h 18.2 km/h 83 % 0 mm
12:37 -6.3 °C -8 °C 34428.8 hPa SSE 2.6 km/h 18.2 km/h 83 % 0 mm
12:42 -6.1 °C -7.6 °C 34418.7 hPa Calm   18.2 km/h 84 % 0 mm
12:47 -6 °C -7.8 °C 34428.8 hPa SW 2.6 km/h 15.6 km/h 82 % 0 mm
12:52 -5.8 °C -7.5 °C 34428.8 hPa SW 10.3 km/h 10.3 km/h 83 % 0 mm
12:57 -5.8 °C -7.8 °C 34428.8 hPa SSW 5.1 km/h 15.6 km/h 80 % 0 mm
13:02 -5.7 °C -7.7 °C 34428.8 hPa West 7.7 km/h 18.2 km/h 80 % 0 mm
13:12 -5.4 °C -7.3 °C 34428.8 hPa WSW 12.9 km/h 18.2 km/h 81 % 0 mm
13:17 -5.2 °C -7.3 °C 34428.8 hPa WNW 10.3 km/h 15.6 km/h 79 % 0 mm
13:22 -5.2 °C -7.4 °C 34428.8 hPa West 2.6 km/h 18.2 km/h 78 % 0 mm
13:27 -5.1 °C -7.7 °C 34428.8 hPa Calm   18.2 km/h 75 % 0 mm
13:32 -5.1 °C -7.7 °C 34428.8 hPa SSE 5.1 km/h 18.2 km/h 75 % 0 mm
13:37 -4.9 °C -7.7 °C 34428.8 hPa SW 10.3 km/h 15.6 km/h 73 % 0 mm
13:42 -4.9 °C -7.6 °C 34428.8 hPa WSW 10.3 km/h 18.2 km/h 75 % 0 mm
13:47 -4.9 °C -7.7 °C 34428.8 hPa South 5.1 km/h 18.2 km/h 73 % 0 mm
13:52 -4.9 °C -7.4 °C 34428.8 hPa SSW 5.1 km/h 18.2 km/h 76 % 0 mm
13:57 -4.9 °C -7.8 °C 34428.8 hPa SSW 12.9 km/h 18.2 km/h 73 % 0 mm
14:02 -4.9 °C -7.6 °C 34428.8 hPa SW 10.3 km/h 18.2 km/h 74 % 0 mm
14:12 -4.9 °C -7.7 °C 34442.4 hPa West 7.7 km/h 18.2 km/h 73 % 0 mm
14:17 -4.8 °C -7.5 °C 34442.4 hPa SW 10.3 km/h 18.2 km/h 74 % 0 mm
14:22 -4.7 °C -7.5 °C 34442.4 hPa SSW 18.2 km/h 18.2 km/h 73 % 0 mm
14:32 -4.7 °C -7.8 °C 34442.4 hPa SE 5.1 km/h 18.2 km/h 71 % 0 mm
14:37 -4.6 °C -7.7 °C 34442.4 hPa SW 10.3 km/h 18.2 km/h 71 % 0 mm
14:42 -4.5 °C -7.5 °C 34442.4 hPa South 10.3 km/h 15.6 km/h 72 % 0 mm
14:47 -4.4 °C -7.5 °C 34442.4 hPa SSW 15.6 km/h 15.6 km/h 71 % 0 mm
14:52 -4.6 °C -7.8 °C 34442.4 hPa SSW 2.6 km/h 23.3 km/h 70 % 0 mm
14:57 -4.6 °C -7.7 °C 34442.4 hPa SW 7.7 km/h 23.3 km/h 71 % 0 mm
15:02 -4.6 °C -7.6 °C 34442.4 hPa South 2.6 km/h 23.3 km/h 72 % 0 mm
15:07 -4.4 °C -7.4 °C 34442.4 hPa South 5.1 km/h 15.6 km/h 72 % 0 mm
15:12 -4.5 °C -7.7 °C 34442.4 hPa SSW 12.9 km/h 12.9 km/h 70 % 0 mm
15:17 -4.5 °C -7.7 °C 34428.8 hPa Calm   12.9 km/h 70 % 0 mm
15:22 -4.3 °C -7.7 °C 34428.8 hPa SSW 7.7 km/h 12.9 km/h 69 % 0 mm
15:27 -4.2 °C -7.6 °C 34442.4 hPa South 7.7 km/h 12.9 km/h 69 % 0 mm
15:32 -4.1 °C -7.6 °C 34442.4 hPa SW 5.1 km/h 12.9 km/h 68 % 0 mm
15:37 -4.1 °C -7.6 °C 34442.4 hPa South 5.1 km/h 15.6 km/h 68 % 0 mm
15:42 -4.2 °C -7.4 °C 34442.4 hPa WNW 5.1 km/h 20.8 km/h 70 % 0 mm
15:47 -4.3 °C -7.4 °C 34442.4 hPa WSW 12.9 km/h 20.8 km/h 71 % 0 mm
15:52 -4.3 °C -7.5 °C 34442.4 hPa SW 28.5 km/h 28.5 km/h 70 % 0 mm
15:57 -4.3 °C -7.5 °C 34442.4 hPa WSW 10.3 km/h 28.5 km/h 70 % 0 mm
16:02 -4.3 °C -7.5 °C 34442.4 hPa SW 15.6 km/h 28.5 km/h 70 % 0 mm
16:12 -4.2 °C -7.4 °C 34428.8 hPa WNW 7.7 km/h 20.8 km/h 70 % 0 mm
16:17 -4.2 °C -7.6 °C 34428.8 hPa WNW 12.9 km/h 18.2 km/h 69 % 0 mm
16:22 -4.2 °C -7.6 °C 34428.8 hPa WNW 12.9 km/h 18.2 km/h 69 % 0 mm
16:32 -4.1 °C -7.6 °C 34428.8 hPa West 12.9 km/h 23.3 km/h 68 % 0 mm
16:37 -4 °C -7.5 °C 34428.8 hPa WSW 7.7 km/h 25.9 km/h 68 % 0 mm
16:42 -4 °C -7.5 °C 34442.4 hPa WNW 10.3 km/h 25.9 km/h 68 % 0 mm
16:47 -3.9 °C -7.4 °C 34442.4 hPa West 2.6 km/h 25.9 km/h 68 % 0 mm
16:52 -4 °C -7.5 °C 34428.8 hPa Calm   20.8 km/h 68 % 0 mm
16:57 -3.8 °C -7.3 °C 34428.8 hPa WNW 12.9 km/h 20.8 km/h 68 % 0 mm
17:02 -3.8 °C -7.4 °C 34428.8 hPa SSW 10.3 km/h 18.2 km/h 67 % 0 mm
17:12 -3.9 °C -7.6 °C 34442.4 hPa West 12.9 km/h 18.2 km/h 67 % 0 mm
17:22 -4.2 °C -7.6 °C 34442.4 hPa WNW 5.1 km/h 20.8 km/h 69 % 0 mm
17:32 -4.2 °C -7.6 °C 34428.8 hPa West 10.3 km/h 12.9 km/h 69 % 0 mm
17:37 -4.2 °C -7.6 °C 34442.4 hPa WNW 5.1 km/h 12.9 km/h 69 % 0 mm
17:42 -4.2 °C -7.4 °C 34428.8 hPa WSW 2.6 km/h 12.9 km/h 70 % 0 mm
17:52 -4.1 °C -7.3 °C 34442.4 hPa SSW 5.1 km/h 7.7 km/h 70 % 0 mm
17:57 -4.1 °C -7.5 °C 34428.8 hPa WNW 2.6 km/h 7.7 km/h 69 % 0 mm
18:02 -4.1 °C -7.3 °C 34428.8 hPa Calm   7.7 km/h 70 % 0 mm
18:12 -3.8 °C -7.2 °C 34428.8 hPa NE 5.1 km/h 5.1 km/h 69 % 0 mm
18:17 -3.7 °C -7.2 °C 34428.8 hPa WSW 2.6 km/h 5.1 km/h 68 % 0 mm
18:22 -3.5 °C -7.2 °C 34442.4 hPa WSW 2.6 km/h 7.7 km/h 67 % 0 mm
18:27 -3.5 °C -7.2 °C 34442.4 hPa Calm   5.1 km/h 67 % 0 mm
18:32 -3.7 °C -7.3 °C 34442.4 hPa NE 10.3 km/h 10.3 km/h 67 % 0 mm
18:37 -3.9 °C -7.3 °C 34442.4 hPa NNE 2.6 km/h 12.9 km/h 69 % 0 mm
18:42 -4 °C -7.4 °C 34442.4 hPa NE 5.1 km/h 12.9 km/h 69 % 0 mm
18:47 -4 °C -7.4 °C 34442.4 hPa Calm   12.9 km/h 69 % 0 mm
18:52 -3.8 °C -7.2 °C 34442.4 hPa Calm   7.7 km/h 69 % 0 mm
18:57 -3.6 °C -7.3 °C 34442.4 hPa NNE 5.1 km/h 7.7 km/h 67 % 0 mm
19:02 -3.7 °C -7.4 °C 34442.4 hPa North 5.1 km/h 10.3 km/h 67 % 0 mm
19:07 -3.8 °C -7.5 °C 34442.4 hPa WNW 2.6 km/h 10.3 km/h 67 % 0 mm
19:12 -4 °C -7.5 °C 34452.6 hPa West 5.1 km/h 15.6 km/h 68 % 0 mm
19:22 -4.1 °C -7.6 °C 34452.6 hPa WNW 2.6 km/h 15.6 km/h 68 % 0 mm
19:32 -4.1 °C -8 °C 34452.6 hPa WNW 7.7 km/h 12.9 km/h 65 % 0 mm
19:42 -4.1 °C -7.7 °C 34452.6 hPa NNE 2.6 km/h 12.9 km/h 67 % 0 mm
19:47 -4.1 °C -7.8 °C 34452.6 hPa WNW 2.6 km/h 12.9 km/h 66 % 0 mm
19:52 -3.9 °C -8 °C 34452.6 hPa Calm   12.9 km/h 64 % 0 mm
19:57 -3.8 °C -8 °C 34452.6 hPa Calm   12.9 km/h 63 % 0 mm
20:02 -3.8 °C -7.9 °C 34452.6 hPa NW 2.6 km/h 10.3 km/h 63 % 0 mm
20:07 -3.8 °C -7.9 °C 34452.6 hPa North 2.6 km/h 7.7 km/h 63 % 0 mm
20:17 -3.9 °C -8.1 °C 34452.6 hPa NNE 2.6 km/h 10.3 km/h 63 % 0 mm
20:22 -3.8 °C -7.9 °C 34452.6 hPa Calm   10.3 km/h 64 % 0 mm
20:27 -3.8 °C -8 °C 34462.7 hPa Calm   7.7 km/h 63 % 0 mm
20:32 -3.8 °C -8.2 °C 34452.6 hPa NW 2.6 km/h 5.1 km/h 62 % 0 mm
20:37 -3.8 °C -8 °C 34462.7 hPa Calm   5.1 km/h 63 % 0 mm
20:47 -3.9 °C -8 °C 34462.7 hPa Calm   5.1 km/h 64 % 0 mm
20:52 -4.1 °C -7.9 °C 34462.7 hPa Calm     65 % 0 mm
21:02 -4.6 °C -7.8 °C 34462.7 hPa Calm   2.6 km/h 70 % 0 mm
21:12 -5.2 °C -7.8 °C 34476.3 hPa NW 2.6 km/h 2.6 km/h 75 % 0 mm
21:17 -5.4 °C -8.3 °C 34476.3 hPa Calm   2.6 km/h 72 % 0 mm
21:22 -5.4 °C -8.2 °C 34476.3 hPa Calm   2.6 km/h 73 % 0 mm
21:27 -5.6 °C -8.2 °C 34476.3 hPa NNW 5.1 km/h 5.1 km/h 74 % 0 mm
21:32 -5.6 °C -8.1 °C 34476.3 hPa NNW 2.6 km/h 5.1 km/h 76 % 0 mm
21:37 -5.7 °C -8 °C 34476.3 hPa Calm   5.1 km/h 77 % 0 mm
21:42 -6 °C -8.3 °C 34486.4 hPa Calm   5.1 km/h 77 % 0 mm
21:47 -6.2 °C -8.2 °C 34486.4 hPa Calm   2.6 km/h 80 % 0 mm
21:52 -6.4 °C -8.4 °C 34486.4 hPa Calm     80 % 0 mm
21:57 -6.3 °C -8.3 °C 34486.4 hPa Calm     80 % 0 mm
22:07 -6.4 °C -8.3 °C 34496.6 hPa Calm     81 % 0 mm
22:12 -6.6 °C -8.2 °C 34496.6 hPa Calm     83 % 0 mm
22:17 -6.7 °C -8.3 °C 34496.6 hPa Calm     84 % 0 mm
22:22 -6.8 °C -8.4 °C 34496.6 hPa Calm     84 % 0 mm
22:32 -6.9 °C -8.3 °C 34496.6 hPa Calm     85 % 0 mm
22:37 -6.9 °C -8.3 °C 34496.6 hPa Calm     85 % 0 mm
22:42 -6.9 °C -8.2 °C 34496.6 hPa Calm     86 % 0 mm
22:47 -7 °C -8.3 °C 34496.6 hPa Calm     86 % 0 mm
22:52 -7.1 °C -8.4 °C 34510.1 hPa Calm     86 % 0 mm
22:57 -7.2 °C -8.4 °C 34510.1 hPa Calm     87 % 0 mm
23:02 -7.3 °C -8.4 °C 34496.6 hPa Calm     88 % 0 mm
23:12 -7.4 °C -8.4 °C 34496.6 hPa Calm     89 % 0 mm
23:17 -7.5 °C -8.5 °C 34510.1 hPa Calm     89 % 0 mm
23:22 -7.6 °C -8.6 °C 34510.1 hPa Calm     90 % 0 mm
23:32 -7.6 °C -8.6 °C 34510.1 hPa Calm     90 % 0 mm
23:37 -7.6 °C -8.5 °C 34510.1 hPa Calm     90 % 0 mm
23:42 -7.5 °C -8.4 °C 34510.1 hPa Calm     90 % 0 mm
23:47 -7.6 °C -8.6 °C 34510.1 hPa Calm     89 % 0 mm
23:52 -7.7 °C -8.7 °C 34520.3 hPa WNW 5.1 km/h   90 % 0 mm
Meteo18
Compliments of Weather Underground - 4 mb

Script developed by  Jim McMurry - jmcmurry@mwt.net Adapted for the template by  Wim van der Kuil - Leuven-Template.eu

You find our weather info also at:

European Weather Network

Weather Underground

Equipment we use:

Weather-station
Davis Vue

Weather-program
Meteobridge

Weather-server
Raspberry PI 2 B+

Provider
1 and 1

Davis Vue

Meteobridge

Raspberry PI 2 B+

1 and 1